Time;durP1;ratioP1;P1;durP2;ratioP2;P2;SDS_P1;SDS_P2;PMS_P1;PMS_P2;Temp;Humidity;BMP_temperature;BMP_pressure;BME280_temperature;BME280_humidity;BME280_pressure;Samples;Min_cycle;Max_cycle;Signal;HPM_P1;HPM_P2
2022/08/13 00:00:32;;;;;;;4.10;2.13;;;19.90;99.90;;;;;;5031903;28;20033;-66
2022/08/13 00:02:59;;;;;;;3.72;2.08;;;19.50;99.90;;;;;;5030251;28;20056;-67
2022/08/13 00:05:25;;;;;;;4.78;2.47;;;19.80;99.90;;;;;;5031728;28;20534;-67
2022/08/13 00:07:51;;;;;;;6.13;2.50;;;19.60;99.90;;;;;;5035128;28;20491;-66
2022/08/13 00:10:31;;;;;;;4.15;2.40;;;19.60;99.90;;;;;;5034867;28;20063;-66
2022/08/13 00:12:56;;;;;;;5.78;2.35;;;19.70;99.90;;;;;;5035292;28;20052;-67
2022/08/13 00:15:35;;;;;;;7.47;2.58;;;20.70;99.90;;;;;;5035010;28;20403;-66
2022/08/13 00:18:12;;;;;;;6.60;2.60;;;19.80;99.90;;;;;;5034858;28;20068;-66
2022/08/13 00:20:48;;;;;;;4.72;2.42;;;19.60;99.90;;;;;;5037846;28;20037;-67
2022/08/13 00:23:14;;;;;;;6.97;2.30;;;19.80;99.90;;;;;;5044719;28;20048;-66
2022/08/13 00:25:42;;;;;;;7.53;2.38;;;19.80;99.90;;;;;;5034794;28;20518;-66
2022/08/13 00:28:08;;;;;;;5.13;2.15;;;19.40;99.90;;;;;;5034886;28;20033;-67
2022/08/13 00:30:35;;;;;;;5.97;2.15;;;19.30;99.90;;;;;;5033342;28;20099;-67
2022/08/13 00:33:04;;;;;;;5.82;2.20;;;19.40;99.90;;;;;;5033585;28;20041;-67
2022/08/13 00:35:33;;;;;;;4.85;1.95;;;19.60;99.90;;;;;;5034556;28;20053;-66
2022/08/13 00:37:58;;;;;;;8.38;2.35;;;19.50;99.90;;;;;;5034806;28;20041;-66
2022/08/13 00:40:26;;;;;;;7.20;2.70;;;19.50;99.90;;;;;;5034675;28;20052;-66
2022/08/13 00:42:57;;;;;;;4.05;2.40;;;19.50;99.90;;;;;;5033382;28;20112;-67
2022/08/13 00:45:22;;;;;;;6.53;2.20;;;19.50;99.90;;;;;;5033306;28;20063;-66
2022/08/13 00:50:35;;;;;;;6.50;2.53;;;19.10;99.90;;;;;;5033157;28;20045;-66
2022/08/13 00:53:02;;;;;;;5.47;2.85;;;19.10;99.90;;;;;;5034260;28;20029;-66
2022/08/13 00:55:28;;;;;;;5.05;3.50;;;19.10;99.90;;;;;;5043983;28;20051;-67
2022/08/13 00:57:53;;;;;;;6.25;2.95;;;19.10;99.90;;;;;;5038029;28;20040;-67
2022/08/13 01:00:22;;;;;;;3.88;2.75;;;18.80;99.90;;;;;;5034319;28;20041;-66
2022/08/13 01:02:52;;;;;;;8.50;3.08;;;19.00;99.90;;;;;;5033915;28;20037;-66
2022/08/13 01:05:23;;;;;;;5.75;2.38;;;18.90;99.90;;;;;;5033010;28;20103;-66
2022/08/13 01:07:49;;;;;;;5.22;2.85;;;18.80;99.90;;;;;;5032752;28;20522;-66
2022/08/13 01:10:15;;;;;;;4.95;2.47;;;18.40;99.90;;;;;;5039376;28;20048;-66
2022/08/13 01:12:42;;;;;;;6.45;2.60;;;18.50;99.90;;;;;;5042271;28;20048;-66
2022/08/13 01:15:13;;;;;;;4.03;2.80;;;18.40;99.90;;;;;;5033826;28;20033;-66
2022/08/13 01:17:45;;;;;;;4.20;2.50;;;18.20;99.90;;;;;;5031652;28;20064;-66
2022/08/13 01:20:20;;;;;;;5.80;3.00;;;18.20;99.90;;;;;;5032413;28;20045;-66
2022/08/13 01:22:52;;;;;;;4.93;2.80;;;17.80;99.90;;;;;;5033766;28;20042;-66
2022/08/13 01:25:21;;;;;;;4.43;2.65;;;17.80;99.90;;;;;;5032555;28;20056;-66
2022/08/13 01:27:51;;;;;;;6.47;3.22;;;17.60;99.90;;;;;;5033366;28;20048;-66
2022/08/13 01:30:19;;;;;;;5.43;3.20;;;17.60;99.90;;;;;;5033847;28;20098;-66
2022/08/13 01:32:45;;;;;;;4.22;2.50;;;17.90;99.90;;;;;;5032118;28;20037;-66
2022/08/13 01:35:12;;;;;;;5.90;2.83;;;17.90;99.90;;;;;;5044279;28;20080;-66
2022/08/13 01:37:39;;;;;;;5.35;2.78;;;17.80;99.90;;;;;;5036286;28;20044;-66
2022/08/13 01:40:06;;;;;;;7.07;2.50;;;17.80;99.90;;;;;;5041212;28;20399;-66
2022/08/13 01:42:44;;;;;;;5.88;2.50;;;17.70;99.90;;;;;;5037882;28;20135;-66
2022/08/13 01:45:12;;;;;;;4.70;2.45;;;18.00;99.90;;;;;;5033483;28;20132;-66
2022/08/13 01:50:29;;;;;;;3.63;2.97;;;17.70;99.90;;;;;;5032102;28;20046;-66
2022/08/13 01:53:07;;;;;;;6.70;2.70;;;18.00;99.90;;;;;;5035777;28;20502;-66
2022/08/13 01:55:41;;;;;;;6.22;2.75;;;17.90;99.90;;;;;;5042889;28;20167;-66
2022/08/13 01:58:14;;;;;;;5.38;2.40;;;17.90;99.90;;;;;;5032881;28;20123;-66
2022/08/13 02:00:44;;;;;;;6.85;2.78;;;18.20;99.90;;;;;;5033082;28;20053;-66
2022/08/13 02:03:11;;;;;;;5.22;2.67;;;18.00;99.90;;;;;;5032849;28;20041;-66
2022/08/13 02:05:38;;;;;;;5.47;2.67;;;18.40;99.90;;;;;;5039601;28;20045;-66
2022/08/13 02:08:10;;;;;;;4.72;2.70;;;18.30;99.90;;;;;;5031489;28;20491;-66
2022/08/13 02:10:39;;;;;;;5.63;2.38;;;18.30;99.90;;;;;;5032861;28;20040;-66
2022/08/13 02:13:11;;;;;;;6.78;2.67;;;18.10;99.90;;;;;;5046779;28;20064;-66
2022/08/13 02:15:38;;;;;;;4.13;2.47;;;18.60;99.90;;;;;;5031730;28;20041;-66
2022/08/13 02:18:04;;;;;;;4.95;2.85;;;18.20;99.90;;;;;;5031473;28;20045;-66
2022/08/13 02:20:34;;;;;;;5.50;2.78;;;18.10;99.90;;;;;;5042107;28;20116;-66
2022/08/13 02:23:01;;;;;;;3.75;2.83;;;18.40;99.90;;;;;;5026230;28;20037;-66
2022/08/13 02:25:28;;;;;;;3.85;2.50;;;18.40;99.90;;;;;;5031312;28;20049;-66
2022/08/13 02:27:55;;;;;;;7.38;2.88;;;18.30;99.90;;;;;;5032733;28;20477;-66
2022/08/13 02:30:24;;;;;;;6.63;2.95;;;18.10;99.90;;;;;;5031242;28;20416;-66
2022/08/13 02:32:50;;;;;;;4.30;2.85;;;18.00;99.90;;;;;;5032732;28;20040;-66
2022/08/13 02:35:18;;;;;;;5.65;2.25;;;18.10;99.90;;;;;;5055329;28;20048;-66
2022/08/13 02:37:44;;;;;;;8.88;2.88;;;18.00;99.90;;;;;;5071200;28;20059;-66
2022/08/13 02:42:56;;;;;;;4.40;2.33;;;18.00;99.90;;;;;;5058161;28;20049;-66
2022/08/13 02:45:23;;;;;;;11.93;3.28;;;18.10;99.90;;;;;;5063080;28;20080;-66
2022/08/13 02:47:51;;;;;;;3.88;2.33;;;17.80;99.90;;;;;;5070390;28;20086;-66
2022/08/13 02:50:20;;;;;;;11.35;3.92;;;18.10;99.90;;;;;;5072383;28;20097;-66
2022/08/13 02:52:47;;;;;;;6.03;2.55;;;18.20;99.90;;;;;;5055460;28;20083;-66
2022/08/13 02:55:13;;;;;;;5.57;2.92;;;17.90;99.90;;;;;;5061166;28;20503;-66
2022/08/13 02:57:39;;;;;;;6.93;2.90;;;17.80;99.90;;;;;;5072003;28;20044;-66
2022/08/13 03:00:07;;;;;;;8.90;2.55;;;17.90;99.90;;;;;;5070814;28;20056;-66
2022/08/13 03:02:44;;;;;;;5.43;2.40;;;17.80;99.90;;;;;;5071966;28;20093;-66
2022/08/13 03:05:13;;;;;;;6.55;2.58;;;17.90;99.90;;;;;;5045730;28;20051;-66
2022/08/13 03:07:41;;;;;;;6.00;3.45;;;18.00;99.90;;;;;;5072221;28;20048;-66
2022/08/13 03:10:12;;;;;;;3.75;2.42;;;17.90;99.90;;;;;;5056194;28;20044;-66
2022/08/13 03:12:48;;;;;;;4.38;2.03;;;18.20;99.90;;;;;;5071041;28;20412;-67
2022/08/13 03:15:15;;;;;;;4.70;2.70;;;17.90;99.90;;;;;;5072162;28;20052;-66
2022/08/13 03:17:41;;;;;;;4.65;2.92;;;17.70;99.90;;;;;;5071960;28;20044;-66
2022/08/13 03:20:16;;;;;;;4.25;2.95;;;17.50;99.90;;;;;;5057961;28;20047;-66
2022/08/13 03:22:55;;;;;;;7.13;2.60;;;17.20;99.90;;;;;;5072356;28;20089;-66
2022/08/13 03:25:25;;;;;;;5.32;2.63;;;17.10;99.90;;;;;;5070584;28;20045;-66
2022/08/13 03:27:51;;;;;;;4.90;2.38;;;16.90;99.90;;;;;;5070496;28;20462;-66
2022/08/13 03:30:19;;;;;;;7.72;2.90;;;17.00;99.90;;;;;;5071860;28;20025;-66
2022/08/13 03:32:46;;;;;;;4.03;2.55;;;16.70;99.90;;;;;;5071946;28;20047;-66
2022/08/13 03:35:16;;;;;;;4.68;2.80;;;16.70;99.90;;;;;;5071748;28;20445;-66
2022/08/13 03:37:45;;;;;;;3.13;2.35;;;16.70;99.90;;;;;;5070754;28;20048;-66
2022/08/13 03:40:11;;;;;;;4.13;2.40;;;16.70;99.90;;;;;;5071210;28;20079;-66
2022/08/13 03:42:40;;;;;;;4.75;2.35;;;16.70;99.90;;;;;;5056356;28;20041;-66
2022/08/13 03:45:07;;;;;;;5.28;2.42;;;16.70;99.90;;;;;;5067533;28;20512;-66
2022/08/13 03:47:33;;;;;;;3.65;2.78;;;16.70;99.90;;;;;;5057261;28;20037;-66
2022/08/13 03:50:00;;;;;;;4.43;2.88;;;16.70;99.90;;;;;;5065558;28;20036;-65
2022/08/13 03:52:30;;;;;;;5.68;2.13;;;16.90;99.90;;;;;;5075446;28;20101;-66
2022/08/13 03:54:57;;;;;;;7.05;2.78;;;16.80;99.90;;;;;;5075382;28;20036;-66
2022/08/13 03:57:23;;;;;;;7.10;2.58;;;16.70;99.90;;;;;;5075564;28;20052;-65
2022/08/13 03:59:49;;;;;;;3.20;2.38;;;17.00;99.90;;;;;;5068103;28;20533;-66
2022/08/13 04:02:16;;;;;;;6.63;2.42;;;17.00;99.90;;;;;;5067361;28;20048;-66
2022/08/13 04:04:46;;;;;;;6.15;2.72;;;17.00;99.90;;;;;;5073996;28;20053;-68
2022/08/13 04:07:16;;;;;;;5.65;3.30;;;16.90;99.90;;;;;;5074902;28;20529;-66
2022/08/13 04:09:42;;;;;;;7.00;2.40;;;16.90;99.90;;;;;;5073681;28;20045;-66
2022/08/13 04:12:11;;;;;;;4.53;2.20;;;17.10;99.90;;;;;;5064541;28;20087;-65
2022/08/13 04:14:39;;;;;;;4.45;2.60;;;16.90;99.90;;;;;;5072099;28;20133;-65
2022/08/13 04:17:05;;;;;;;6.63;2.60;;;16.70;99.90;;;;;;5065630;28;20071;-65
2022/08/13 04:19:33;;;;;;;5.05;2.38;;;;;;;;;;5069028;28;20094;-67
2022/08/13 04:21:59;;;;;;;3.00;2.28;;;17.00;99.90;;;;;;5062415;28;20127;-66
2022/08/13 04:24:27;;;;;;;5.07;2.50;;;16.90;99.90;;;;;;5056909;28;20131;-66
2022/08/13 04:26:54;;;;;;;3.03;2.10;;;16.80;99.90;;;;;;5075251;28;20039;-65
2022/08/13 04:29:20;;;;;;;4.75;2.90;;;16.80;99.90;;;;;;5074951;28;20044;-65
2022/08/13 04:31:46;;;;;;;3.63;2.47;;;16.70;99.90;;;;;;5056061;28;20041;-66
2022/08/13 04:34:12;;;;;;;3.42;2.17;;;16.80;99.90;;;;;;5065003;28;20398;-68
2022/08/13 04:36:37;;;;;;;7.13;2.67;;;16.90;99.90;;;;;;5074604;28;20040;-65
2022/08/13 04:39:03;;;;;;;6.68;2.85;;;17.00;99.90;;;;;;5073528;28;20055;-66
2022/08/13 04:41:29;;;;;;;6.75;2.78;;;16.90;99.90;;;;;;5059076;28;20059;-66
2022/08/13 04:43:54;;;;;;;4.63;2.40;;;17.00;99.90;;;;;;5057197;28;20090;-65
2022/08/13 04:46:20;;;;;;;5.15;2.53;;;17.00;99.90;;;;;;5062237;28;20043;-66
2022/08/13 04:48:46;;;;;;;4.50;2.38;;;17.10;99.90;;;;;;5074382;28;20097;-66
2022/08/13 04:51:11;;;;;;;5.07;2.70;;;17.20;99.90;;;;;;5054023;28;20037;-66
2022/08/13 04:53:38;;;;;;;4.35;2.53;;;17.30;99.90;;;;;;5054158;28;20047;-66
2022/08/13 04:56:04;;;;;;;7.55;2.80;;;17.90;99.90;;;;;;5072455;28;20379;-66
2022/08/13 04:58:35;;;;;;;8.63;2.58;;;17.30;99.90;;;;;;5063822;28;20052;-65
2022/08/13 05:01:03;;;;;;;6.50;2.22;;;17.30;99.90;;;;;;5069686;28;20390;-66
2022/08/13 05:03:29;;;;;;;4.47;2.40;;;17.40;99.90;;;;;;5074253;28;20044;-66
2022/08/13 05:05:56;;;;;;;4.28;2.10;;;17.40;99.90;;;;;;5073936;28;20043;-66
2022/08/13 05:08:22;;;;;;;6.15;2.47;;;17.40;99.90;;;;;;5074142;28;20046;-65
2022/08/13 05:10:50;;;;;;;5.38;2.22;;;17.60;99.90;;;;;;5060334;28;20064;-66
2022/08/13 05:13:33;;;;;;;5.22;2.53;;;17.70;99.90;;;;;;5067969;28;20033;-65
2022/08/13 05:16:01;;;;;;;5.85;2.63;;;17.50;99.90;;;;;;5068131;28;20048;-68
2022/08/13 05:18:29;;;;;;;4.43;2.25;;;17.60;99.90;;;;;;5067331;28;20092;-65
2022/08/13 05:20:56;;;;;;;3.08;2.28;;;17.70;99.90;;;;;;5054181;28;20394;-66
2022/08/13 05:23:24;;;;;;;4.80;2.22;;;17.70;99.90;;;;;;5072843;28;20040;-65
2022/08/13 05:25:50;;;;;;;5.63;2.75;;;17.80;99.90;;;;;;5062447;28;20048;-66
2022/08/13 05:28:20;;;;;;;4.75;2.40;;;18.00;99.90;;;;;;5070763;28;20044;-66
2022/08/13 05:30:49;;;;;;;3.75;2.17;;;17.80;99.90;;;;;;5063718;28;20037;-66
2022/08/13 05:33:17;;;;;;;3.15;2.17;;;18.10;99.90;;;;;;5070040;28;20102;-65
2022/08/13 05:35:48;;;;;;;3.35;2.20;;;18.00;99.90;;;;;;5063018;28;20402;-65
2022/08/13 05:38:15;;;;;;;3.35;1.90;;;18.10;99.90;;;;;;5055274;28;20092;-66
2022/08/13 05:40:41;;;;;;;3.70;2.03;;;17.90;99.90;;;;;;5073154;28;20112;-66
2022/08/13 05:43:13;;;;;;;4.35;2.08;;;18.30;99.90;;;;;;5062088;28;20045;-65
2022/08/13 05:45:41;;;;;;;4.53;2.40;;;18.20;99.90;;;;;;5069599;28;20056;-66
2022/08/13 05:48:07;;;;;;;4.45;2.10;;;18.50;99.90;;;;;;5073240;28;20040;-66
2022/08/13 05:50:34;;;;;;;5.80;1.85;;;19.10;99.90;;;;;;5073239;28;20040;-65
2022/08/13 05:53:10;;;;;;;2.70;1.70;;;19.90;99.90;;;;;;5072131;28;20080;-66
2022/08/13 05:55:38;;;;;;;4.47;1.70;;;20.30;99.90;;;;;;5058795;28;20098;-66
2022/08/13 05:58:09;;;;;;;4.80;1.98;;;20.50;99.90;;;;;;5072721;28;20564;-66
2022/08/13 06:03:25;;;;;;;4.00;1.90;;;20.50;99.90;;;;;;5050003;28;20045;-66
2022/08/13 06:05:53;;;;;;;3.20;1.70;;;20.80;99.90;;;;;;5052155;28;20036;-66
2022/08/13 06:08:29;;;;;;;4.10;1.80;;;21.00;99.90;;;;;;5052329;28;20060;-66
2022/08/13 06:11:05;;;;;;;3.13;1.67;;;21.80;99.90;;;;;;5052242;28;20052;-66
2022/08/13 06:13:31;;;;;;;4.97;1.70;;;22.90;99.90;;;;;;5046237;28;20406;-66
2022/08/13 06:16:00;;;;;;;6.60;1.80;;;23.60;99.90;;;;;;5051305;28;20049;-66
2022/08/13 06:18:29;;;;;;;3.95;1.10;;;24.20;99.90;;;;;;5051084;28;20452;-66
2022/08/13 06:20:57;;;;;;;3.60;1.10;;;25.60;99.90;;;;;;5050359;28;20114;-67
2022/08/13 06:23:25;;;;;;;3.83;1.08;;;25.80;99.90;;;;;;5052016;28;20395;-66
2022/08/13 06:25:54;;;;;;;3.63;1.50;;;26.20;99.90;;;;;;5050826;28;20040;-66
2022/08/13 06:28:22;;;;;;;2.92;1.13;;;26.60;99.90;;;;;;5050991;28;20479;-66
2022/08/13 06:30:53;;;;;;;2.60;1.00;;;29.00;99.90;;;;;;5050815;28;20041;-69
2022/08/13 06:33:21;;;;;;;3.67;1.13;;;27.60;99.90;;;;;;5052348;28;20035;-68
2022/08/13 06:35:59;;;;;;;3.92;1.10;;;28.80;99.90;;;;;;5051363;28;20475;-67
2022/08/13 06:38:40;;;;;;;7.78;1.02;;;29.20;99.90;;;;;;5051300;28;20044;-66
2022/08/13 06:41:07;;;;;;;2.72;0.95;;;29.00;99.90;;;;;;5052196;28;20041;-66
2022/08/13 06:43:36;;;;;;;3.90;0.80;;;31.30;99.90;;;;;;5050697;28;20048;-66
2022/08/13 06:46:05;;;;;;;2.03;0.98;;;31.40;99.70;;;;;;5070225;28;20036;-67
2022/08/13 06:48:35;;;;;;;1.95;0.70;;;31.70;99.90;;;;;;5071340;28;20040;-66
2022/08/13 06:51:06;;;;;;;4.90;0.52;;;30.40;99.00;;;;;;5072275;28;20044;-66
2022/08/13 06:53:32;;;;;;;2.83;0.63;;;30.40;99.20;;;;;;5072296;28;20094;-66
2022/08/13 06:55:58;;;;;;;4.10;0.60;;;32.00;98.20;;;;;;5070585;28;20509;-67
2022/08/13 06:58:28;;;;;;;2.42;0.80;;;31.40;97.90;;;;;;5062543;28;20092;-69
2022/08/13 07:00:55;;;;;;;3.35;0.50;;;31.10;96.60;;;;;;5068318;28;20044;-67
2022/08/13 07:03:26;;;;;;;2.13;0.55;;;31.50;96.50;;;;;;5068150;28;20085;-67
2022/08/13 07:05:52;;;;;;;2.42;0.77;;;31.30;95.90;;;;;;5034238;28;20042;-67
2022/08/13 07:08:18;;;;;;;10.93;2.25;;;31.50;95.60;;;;;;5051862;28;20036;-66
2022/08/13 07:10:51;;;;;;;4.45;0.70;;;31.50;95.40;;;;;;5050582;28;20407;-66
2022/08/13 07:13:17;;;;;;;3.75;1.27;;;30.70;96.20;;;;;;5050695;28;20052;-67
2022/08/13 07:15:51;;;;;;;2.22;0.60;;;28.80;96.20;;;;;;5054535;28;20495;-66
2022/08/13 07:18:17;;;;;;;4.10;0.55;;;28.10;97.00;;;;;;5055346;28;20041;-66
2022/08/13 07:20:44;;;;;;;4.10;0.68;;;27.40;97.90;;;;;;5066157;28;20044;-67
2022/08/13 07:23:11;;;;;;;2.45;0.80;;;28.10;99.10;;;;;;5056373;28;20029;-68
2022/08/13 07:25:39;;;;;;;3.42;0.70;;;26.30;99.10;;;;;;5054625;28;20037;-68
2022/08/13 07:28:05;;;;;;;3.03;0.80;;;26.30;99.30;;;;;;5055887;28;20051;-68
2022/08/13 07:30:31;;;;;;;4.03;0.80;;;26.00;99.60;;;;;;5054008;28;20049;-68
2022/08/13 07:32:57;;;;;;;3.00;0.70;;;26.60;99.90;;;;;;5044023;28;20052;-68
2022/08/13 07:35:23;;;;;;;2.30;0.68;;;26.40;99.90;;;;;;5040078;28;20051;-68
2022/08/13 07:37:52;;;;;;;2.60;1.05;;;25.50;99.90;;;;;;5054967;28;20120;-69
2022/08/13 07:40:19;;;;;;;2.67;0.57;;;27.00;99.90;;;;;;5053817;28;20056;-68
2022/08/13 07:42:48;;;;;;;4.95;0.80;;;25.30;99.90;;;;;;5055151;28;20043;-68
2022/08/13 07:45:23;;;;;;;3.92;0.70;;;25.30;99.90;;;;;;5054062;28;20041;-68
2022/08/13 07:47:50;;;;;;;5.22;0.70;;;25.20;99.90;;;;;;5040704;28;20052;-68
2022/08/13 07:50:17;;;;;;;5.93;0.60;;;27.00;99.90;;;;;;5053630;28;20040;-69
2022/08/13 07:52:43;;;;;;;1.38;0.50;;;25.50;99.90;;;;;;5053590;28;20075;-68
2022/08/13 07:55:08;;;;;;;4.30;0.63;;;25.60;99.90;;;;;;5053764;28;20076;-68
2022/08/13 07:57:35;;;;;;;1.98;0.60;;;25.50;99.90;;;;;;5053564;28;20078;-68
2022/08/13 08:00:03;;;;;;;2.80;0.85;;;26.70;99.90;;;;;;5054501;28;20045;-68
2022/08/13 08:02:32;;;;;;;2.08;0.63;;;25.60;99.90;;;;;;5054661;28;20037;-68
2022/08/13 08:04:58;;;;;;;3.53;0.70;;;25.80;99.90;;;;;;5053227;28;20124;-69
2022/08/13 08:07:27;;;;;;;6.32;0.63;;;25.60;99.90;;;;;;5053435;28;20037;-68
2022/08/13 08:09:54;;;;;;;6.88;0.70;;;25.70;99.90;;;;;;5053447;28;20041;-68
2022/08/13 08:12:35;;;;;;;2.15;0.70;;;25.70;99.90;;;;;;5053227;28;20453;-68
2022/08/13 08:15:06;;;;;;;2.80;0.60;;;25.60;99.90;;;;;;5053342;28;20045;-68
2022/08/13 08:17:31;;;;;;;2.25;1.10;;;25.70;99.90;;;;;;5053294;28;20072;-68
2022/08/13 08:19:57;;;;;;;2.40;0.70;;;26.10;99.90;;;;;;5053465;28;20087;-68
2022/08/13 08:22:23;;;;;;;2.22;0.60;;;26.10;99.90;;;;;;5050597;28;20037;-68
2022/08/13 08:24:50;;;;;;;6.20;0.63;;;27.80;99.90;;;;;;5054249;28;20052;-68
2022/08/13 08:27:17;;;;;;;7.82;0.80;;;26.20;99.90;;;;;;5050962;28;20037;-69
2022/08/13 08:29:44;;;;;;;2.90;0.50;;;26.30;99.90;;;;;;5052660;28;20115;-69
2022/08/13 08:32:12;;;;;;;1.88;0.47;;;26.20;99.90;;;;;;5052766;28;20488;-69
2022/08/13 08:34:40;;;;;;;2.28;0.50;;;27.70;99.90;;;;;;5032567;28;20049;-69
2022/08/13 08:37:06;;;;;;;8.13;0.77;;;28.00;99.90;;;;;;5052474;28;20044;-68
2022/08/13 08:42:35;;;;;;;4.35;0.45;;;26.60;99.90;;;;;;5051787;28;20487;-68
2022/08/13 08:45:11;;;;;;;1.70;0.50;;;26.60;99.90;;;;;;5052804;28;20044;-68
2022/08/13 08:47:36;;;;;;;4.47;0.52;;;26.70;99.10;;;;;;5042185;28;20090;-68
2022/08/13 08:50:04;;;;;;;4.40;0.63;;;27.30;99.20;;;;;;5051205;28;20045;-68
2022/08/13 08:55:16;;;;;;;1.58;0.30;;;26.80;99.90;;;;;;5052429;28;20495;-65
2022/08/13 08:57:44;;;;;;;1.98;0.30;;;27.20;98.60;;;;;;5053340;28;20560;-66
2022/08/13 09:00:15;;;;;;;4.00;0.50;;;27.30;98.40;;;;;;5051028;28;20411;-65
2022/08/13 09:02:42;;;;;;;1.73;0.52;;;27.40;98.60;;;;;;5053556;28;20052;-65
2022/08/13 09:05:12;;;;;;;5.05;0.60;;;27.30;98.40;;;;;;5052387;28;20049;-65
2022/08/13 09:07:41;;;;;;;1.45;0.60;;;27.40;98.80;;;;;;5051843;28;20037;-66
2022/08/13 09:10:09;;;;;;;3.90;0.60;;;27.30;98.10;;;;;;5053723;28;20037;-65
2022/08/13 09:12:36;;;;;;;3.22;0.70;;;27.40;97.90;;;;;;5053515;28;20063;-65
2022/08/13 09:15:03;;;;;;;1.25;0.47;;;27.40;97.40;;;;;;5042872;28;20047;-66
2022/08/13 09:17:29;;;;;;;1.00;0.50;;;27.60;97.80;;;;;;5052308;28;20227;-68
2022/08/13 09:19:55;;;;;;;1.52;0.40;;;27.80;97.70;;;;;;5041749;28;20363;-68
2022/08/13 09:22:24;;;;;;;4.75;0.55;;;27.30;98.10;;;;;;5051688;28;20166;-67
2022/08/13 09:24:52;;;;;;;1.90;0.60;;;27.60;98.10;;;;;;5053339;28;20523;-67
2022/08/13 09:27:18;;;;;;;3.42;0.68;;;28.90;98.60;;;;;;5051874;28;20167;-67
2022/08/13 09:29:44;;;;;;;2.88;0.45;;;27.60;97.50;;;;;;5053234;28;20514;-67
2022/08/13 09:32:10;;;;;;;2.92;0.95;;;28.80;97.60;;;;;;5052842;28;20491;-67
2022/08/13 09:34:39;;;;;;;2.38;0.50;;;27.90;97.70;;;;;;5052980;28;20033;-68
2022/08/13 09:37:07;;;;;;;2.78;0.52;;;28.00;96.70;;;;;;5052826;28;20036;-67
2022/08/13 09:39:39;;;;;;;1.80;0.40;;;28.40;96.70;;;;;;5051970;28;20041;-67
2022/08/13 09:42:12;;;;;;;2.95;0.50;;;28.30;97.40;;;;;;5052934;28;20078;-67
2022/08/13 09:44:41;;;;;;;1.85;0.43;;;29.70;97.40;;;;;;5048672;28;20079;-69
2022/08/13 09:47:11;;;;;;;3.47;0.60;;;28.30;96.50;;;;;;5040912;28;20080;-67
2022/08/13 09:49:37;;;;;;;1.05;0.60;;;28.30;96.10;;;;;;5051282;28;20082;-67
2022/08/13 09:52:04;;;;;;;1.30;0.50;;;28.60;96.20;;;;;;5052944;28;20029;-67
2022/08/13 09:54:29;;;;;;;3.63;0.75;;;28.40;96.20;;;;;;5050608;28;20060;-67
2022/08/13 09:56:57;;;;;;;3.72;0.47;;;28.40;96.20;;;;;;5043769;28;20365;-68
2022/08/13 09:59:33;;;;;;;4.22;0.80;;;29.30;96.40;;;;;;5107346;27;20313;-66
2022/08/13 10:02:09;;;;;;;2.78;0.40;;;28.50;96.60;;;;;;5097593;28;20033;-66
2022/08/13 10:04:37;;;;;;;2.08;0.50;;;28.70;96.20;;;;;;5088046;28;20055;-66
2022/08/13 10:07:05;;;;;;;1.52;0.50;;;28.80;96.50;;;;;;5087834;28;20383;-66
2022/08/13 10:09:33;;;;;;;3.30;0.70;;;29.00;95.80;;;;;;5087819;28;20086;-66
2022/08/13 10:12:00;;;;;;;3.33;0.50;;;30.50;96.50;;;;;;5088869;28;20040;-66
2022/08/13 10:14:26;;;;;;;6.50;0.70;;;30.50;96.90;;;;;;5087657;28;20091;-66
2022/08/13 10:16:53;;;;;;;2.08;0.40;;;28.90;95.50;;;;;;5087505;28;20072;-65
2022/08/13 10:19:18;;;;;;;3.53;0.63;;;30.10;96.20;;;;;;5089035;28;20052;-66
2022/08/13 10:21:44;;;;;;;1.45;0.30;;;30.20;96.20;;;;;;5087380;28;20607;-66
2022/08/13 10:24:10;;;;;;;1.13;0.40;;;29.10;95.60;;;;;;5087161;28;20028;-66
2022/08/13 10:26:40;;;;;;;1.17;0.50;;;30.30;95.50;;;;;;5088229;28;20032;-66
2022/08/13 10:29:08;;;;;;;2.60;0.60;;;29.60;95.40;;;;;;5096258;28;20044;-66
2022/08/13 10:31:35;;;;;;;2.70;0.52;;;29.10;95.10;;;;;;5087235;28;20490;-66
2022/08/13 10:34:01;;;;;;;1.33;0.50;;;29.90;95.80;;;;;;5088881;28;20057;-66
2022/08/13 10:36:27;;;;;;;3.25;0.50;;;29.10;94.80;;;;;;5087113;28;20151;-65
2022/08/13 10:38:54;;;;;;;4.03;0.60;;;29.90;95.60;;;;;;5087974;28;20036;-66
2022/08/13 10:41:20;;;;;;;3.28;0.90;;;29.30;95.10;;;;;;5088267;28;20414;-66
2022/08/13 10:43:45;;;;;;;2.50;0.40;;;30.70;95.30;;;;;;5102860;28;20038;-66
2022/08/13 10:46:16;;;;;;;1.13;0.40;;;29.00;94.90;;;;;;5088622;28;20486;-65
2022/08/13 10:48:48;;;;;;;1.42;0.65;;;29.90;94.40;;;;;;5088628;28;20040;-66
2022/08/13 10:51:13;;;;;;;1.27;0.50;;;29.20;93.90;;;;;;5087126;28;20389;-65
2022/08/13 10:53:58;;;;;;;1.30;0.40;;;30.90;94.50;;;;;;5087744;28;20028;-66
2022/08/13 10:56:28;;;;;;;3.65;0.68;;;29.70;93.10;;;;;;5087600;28;20058;-66
2022/08/13 10:58:56;;;;;;;5.00;0.60;;;29.50;93.80;;;;;;5088203;28;20044;-65
2022/08/13 11:01:24;;;;;;;5.65;0.45;;;30.40;95.00;;;;;;5085963;28;20060;-66
2022/08/13 11:03:55;;;;;;;1.73;0.30;;;29.50;93.60;;;;;;5088051;28;20044;-66
2022/08/13 11:06:22;;;;;;;1.67;0.52;;;30.90;94.10;;;;;;5086487;28;20039;-66
2022/08/13 11:08:47;;;;;;;1.35;0.30;;;30.50;94.50;;;;;;5085205;28;20050;-66
2022/08/13 11:11:13;;;;;;;2.00;0.43;;;29.50;93.60;;;;;;5074157;28;20029;-66
2022/08/13 11:13:39;;;;;;;2.97;0.70;;;29.90;93.80;;;;;;5090305;28;20109;-65
2022/08/13 11:16:29;;;;;;;4.30;0.88;;;30.70;94.70;;;;;;5081177;28;20041;-66
2022/08/13 11:18:53;;;;;;;2.70;0.57;;;29.50;93.40;;;;;;5072745;28;20043;-66
2022/08/13 11:21:18;;;;;;;1.05;0.40;;;29.40;93.60;;;;;;5075039;28;20047;-65
2022/08/13 11:23:44;;;;;;;2.92;0.50;;;29.90;93.50;;;;;;5085816;28;20119;-66
2022/08/13 11:26:11;;;;;;;2.50;0.40;;;29.70;93.70;;;;;;5076951;28;20033;-66
2022/08/13 11:28:36;;;;;;;1.58;0.50;;;29.20;93.80;;;;;;5092510;28;20044;-65
2022/08/13 11:31:02;;;;;;;3.75;0.77;;;30.30;93.90;;;;;;5087081;28;20097;-66
2022/08/13 11:33:27;;;;;;;1.80;0.60;;;30.50;94.00;;;;;;5084428;28;20116;-66
2022/08/13 11:35:53;;;;;;;2.22;0.40;;;29.30;94.10;;;;;;5076439;28;20043;-66
2022/08/13 11:38:21;;;;;;;1.92;0.40;;;29.40;93.60;;;;;;5084262;28;20493;-66
2022/08/13 11:40:48;;;;;;;1.30;0.60;;;29.30;94.10;;;;;;5086413;28;20486;-65
2022/08/13 11:43:14;;;;;;;1.85;0.55;;;29.70;92.70;;;;;;5085330;28;20533;-66
2022/08/13 11:45:40;;;;;;;2.67;0.45;;;31.40;93.90;;;;;;5091802;28;20123;-66
2022/08/13 11:48:06;;;;;;;2.45;0.40;;;30.20;93.30;;;;;;5080114;28;20486;-66
2022/08/13 11:50:32;;;;;;;3.63;0.47;;;31.00;93.10;;;;;;5091631;28;20036;-65
2022/08/13 11:52:58;;;;;;;1.25;0.47;;;29.70;93.30;;;;;;5091266;28;20085;-65
2022/08/13 11:55:23;;;;;;;3.17;0.40;;;31.00;92.70;;;;;;5085540;28;20394;-66
2022/08/13 11:58:02;;;;;;;2.28;0.50;;;29.80;92.90;;;;;;5072623;28;20045;-65
2022/08/13 12:00:28;;;;;;;0.82;0.43;;;29.90;91.60;;;;;;5085630;28;20138;-65
2022/08/13 12:02:54;;;;;;;2.88;0.57;;;30.20;92.40;;;;;;5089635;28;20040;-65
2022/08/13 12:05:20;;;;;;;2.22;0.40;;;30.00;92.60;;;;;;5079311;28;20122;-66
2022/08/13 12:07:45;;;;;;;4.57;0.45;;;30.00;92.40;;;;;;5073056;28;20036;-65
2022/08/13 12:10:12;;;;;;;1.15;0.38;;;29.90;92.50;;;;;;5070257;28;20040;-66
2022/08/13 12:12:38;;;;;;;2.30;0.50;;;30.90;93.60;;;;;;5069454;28;20509;-66
2022/08/13 12:15:05;;;;;;;1.10;0.40;;;29.20;92.60;;;;;;5069743;28;20113;-66
2022/08/13 12:17:31;;;;;;;2.72;0.40;;;29.60;93.20;;;;;;5070231;28;20056;-66
2022/08/13 12:19:57;;;;;;;2.92;0.55;;;29.90;93.40;;;;;;5068831;28;20037;-66
2022/08/13 12:22:22;;;;;;;2.05;0.82;;;30.30;93.60;;;;;;5067780;28;20112;-65
2022/08/13 12:24:48;;;;;;;3.35;0.50;;;29.80;93.10;;;;;;5069933;28;20063;-66
2022/08/13 12:27:13;;;;;;;2.47;0.85;;;29.60;93.50;;;;;;5069517;28;20522;-66
2022/08/13 12:29:39;;;;;;;1.70;0.40;;;29.90;92.90;;;;;;5069845;28;20394;-66
2022/08/13 12:32:05;;;;;;;1.75;0.45;;;29.90;92.60;;;;;;5069902;28;20036;-66
2022/08/13 12:34:30;;;;;;;1.35;0.50;;;30.00;93.40;;;;;;5068858;28;20056;-67
2022/08/13 12:36:56;;;;;;;1.50;0.50;;;30.00;92.10;;;;;;5070031;28;20051;-66
2022/08/13 12:39:22;;;;;;;1.17;0.40;;;29.70;92.60;;;;;;5069441;28;20050;-66
2022/08/13 12:41:47;;;;;;;3.90;0.52;;;29.50;92.40;;;;;;5069437;28;20044;-66
2022/08/13 12:44:13;;;;;;;1.73;0.50;;;31.10;93.30;;;;;;5069637;28;20048;-66
2022/08/13 12:46:39;;;;;;;2.42;0.82;;;31.40;92.90;;;;;;5079357;28;20066;-66
2022/08/13 12:49:06;;;;;;;4.10;0.80;;;29.90;92.40;;;;;;5072920;28;20052;-66
2022/08/13 12:51:31;;;;;;;3.15;0.60;;;30.90;92.70;;;;;;5069741;28;20040;-67
2022/08/13 12:53:57;;;;;;;2.00;0.60;;;29.70;93.00;;;;;;5069118;28;20043;-66
2022/08/13 12:56:22;;;;;;;6.40;0.68;;;29.80;92.80;;;;;;5073577;28;20097;-66
2022/08/13 12:58:48;;;;;;;3.45;0.80;;;31.40;92.20;;;;;;5083263;28;20044;-65
2022/08/13 13:01:14;;;;;;;1.73;0.60;;;30.00;92.30;;;;;;5088176;28;20044;-66
2022/08/13 13:03:39;;;;;;;2.75;0.65;;;29.90;91.60;;;;;;5077311;28;20051;-66
2022/08/13 13:06:05;;;;;;;2.33;0.50;;;29.80;91.10;;;;;;5081736;28;20079;-66
2022/08/13 13:08:32;;;;;;;1.40;0.50;;;30.00;91.90;;;;;;5083443;28;20048;-66